ISR721 LLBG-LBSF
Flight info
| Callsign | ISR721 |
|---|---|
| Flight time | N/A |
| Altitude | 36000 |
| Route | SUVAS DCT TEZAK N128 OTHON DCT VAXOS UN128 RDS UL609 MES DCT EVIVI Y94 VANET |
| Aircraft | A320/M-SDE3FGHIRWY/LB1 |
Departure
| Time | 2026-05-04 10:49 |
|---|---|
| Airport | Ben Gurion International Airport (LLBG) |
Arrival
| Time | N/A |
|---|---|
| Airport | Sofia Airport (LBSF) |
| Time | Latitude | Longitude | Altitude | Speed | Heading |
|---|---|---|---|---|---|
| 2026-05-04 10:19 | 32.00303 | 34.87934 | 116 ft | 0 kts | 105° |
| 2026-05-04 10:39 | 32.00317 | 34.87873 | 116 ft | 4 kts | 104° |
| 2026-05-04 10:39 | 32.00322 | 34.87849 | 116 ft | 4 kts | 86° |
| 2026-05-04 10:39 | 32.00313 | 34.87822 | 116 ft | 4 kts | 38° |
| 2026-05-04 10:40 | 32.00292 | 34.87806 | 119 ft | 3 kts | 32° |
| 2026-05-04 10:40 | 32.00270 | 34.87790 | 118 ft | 3 kts | 31° |
| 2026-05-04 10:40 | 32.00268 | 34.87788 | 118 ft | 0 kts | 31° |
| 2026-05-04 10:42 | 32.00279 | 34.87796 | 119 ft | 4 kts | 31° |
| 2026-05-04 10:42 | 32.00310 | 34.87818 | 116 ft | 7 kts | 31° |
| 2026-05-04 10:43 | 32.00358 | 34.87853 | 116 ft | 10 kts | 31° |
| 2026-05-04 10:44 | 32.00993 | 34.88212 | 120 ft | 19 kts | 31° |
| 2026-05-04 10:45 | 32.01107 | 34.88294 | 117 ft | 19 kts | 31° |
| 2026-05-04 10:45 | 32.01225 | 34.88379 | 118 ft | 20 kts | 34° |
| 2026-05-04 10:45 | 32.01340 | 34.88492 | 120 ft | 23 kts | 46° |
| 2026-05-04 10:45 | 32.01436 | 34.88647 | 120 ft | 24 kts | 60° |
| 2026-05-04 10:46 | 32.01494 | 34.88834 | 118 ft | 25 kts | 77° |
| 2026-05-04 10:46 | 32.01519 | 34.88993 | 116 ft | 16 kts | 80° |
| 2026-05-04 10:46 | 32.01542 | 34.89126 | 120 ft | 17 kts | 67° |
| 2026-05-04 10:46 | 32.01648 | 34.89151 | 116 ft | 18 kts | 348° |
| 2026-05-04 10:47 | 32.01744 | 34.89093 | 119 ft | 11 kts | 283° |
| 2026-05-04 10:47 | 32.01742 | 34.89057 | 120 ft | 6 kts | 261° |
| 2026-05-04 10:47 | 32.01690 | 34.88723 | 117 ft | 75 kts | 259° |
| 2026-05-04 10:47 | 32.01561 | 34.87902 | 119 ft | 127 kts | 259° |
| 2026-05-04 10:49 | 31.99956 | 34.79331 | 3649 ft | 178 kts | 255° |
| 2026-05-04 10:49 | 31.99649 | 34.77910 | 4262 ft | 181 kts | 256° |
| 2026-05-04 10:50 | 31.99345 | 34.76462 | 4919 ft | 182 kts | 258° |
| 2026-05-04 10:51 | 32.01456 | 34.65709 | 9269 ft | 203 kts | 278° |
| 2026-05-04 10:52 | 32.01833 | 34.64090 | 9880 ft | 209 kts | 277° |
| 2026-05-04 10:52 | 32.02232 | 34.62342 | 10169 ft | 233 kts | 278° |
| 2026-05-04 10:52 | 32.02674 | 34.60409 | 10454 ft | 256 kts | 278° |
| 2026-05-04 10:54 | 32.06373 | 34.44698 | 14053 ft | 326 kts | 280° |
| 2026-05-04 10:54 | 32.06988 | 34.42115 | 14689 ft | 328 kts | 279° |
| 2026-05-04 10:56 | 32.11318 | 34.23567 | 19045 ft | 343 kts | 278° |
| 2026-05-04 10:56 | 32.11949 | 34.20845 | 19638 ft | 345 kts | 278° |
| 2026-05-04 10:56 | 32.12584 | 34.18104 | 20231 ft | 347 kts | 278° |
| 2026-05-04 10:57 | 32.13224 | 34.15346 | 20824 ft | 350 kts | 278° |
| 2026-05-04 10:57 | 32.13868 | 34.12573 | 21395 ft | 352 kts | 278° |
| 2026-05-04 10:57 | 32.14508 | 34.09819 | 21940 ft | 354 kts | 278° |
| 2026-05-04 10:57 | 32.15158 | 34.07013 | 22470 ft | 356 kts | 277° |
| 2026-05-04 10:58 | 32.15812 | 34.04183 | 22994 ft | 358 kts | 277° |
| 2026-05-04 10:58 | 32.16476 | 34.01340 | 23510 ft | 362 kts | 279° |
| 2026-05-04 10:58 | 32.17469 | 33.98556 | 23955 ft | 375 kts | 289° |
| 2026-05-04 10:58 | 32.18932 | 33.95940 | 24373 ft | 385 kts | 296° |
| 2026-05-04 10:59 | 32.20497 | 33.93366 | 24793 ft | 387 kts | 295° |
| 2026-05-04 10:59 | 32.22063 | 33.90780 | 25207 ft | 388 kts | 295° |
| 2026-05-04 10:59 | 32.23633 | 33.88177 | 25611 ft | 390 kts | 295° |
| 2026-05-04 10:59 | 32.25209 | 33.85559 | 26000 ft | 392 kts | 295° |
| 2026-05-04 11:00 | 32.26789 | 33.82930 | 26387 ft | 393 kts | 295° |
| 2026-05-04 11:01 | 32.38054 | 33.64151 | 28979 ft | 407 kts | 295° |
| 2026-05-04 11:02 | 32.39693 | 33.61408 | 29318 ft | 409 kts | 295° |
| 2026-05-04 11:02 | 32.41340 | 33.58655 | 29657 ft | 411 kts | 295° |
| 2026-05-04 11:05 | 32.64804 | 33.19208 | 34028 ft | 419 kts | 295° |
| 2026-05-04 11:06 | 32.66478 | 33.16379 | 34317 ft | 419 kts | 295° |
| 2026-05-04 11:06 | 32.68149 | 33.13550 | 34610 ft | 418 kts | 295° |
| 2026-05-04 11:06 | 32.69815 | 33.10724 | 34907 ft | 418 kts | 294° |
| 2026-05-04 11:06 | 32.71480 | 33.07898 | 35204 ft | 417 kts | 294° |
| 2026-05-04 11:08 | 32.83105 | 32.88132 | 36023 ft | 416 kts | 294° |
| 2026-05-04 11:10 | 32.94679 | 32.68351 | 36019 ft | 416 kts | 294° |
| 2026-05-04 11:12 | 33.07824 | 32.45764 | 36014 ft | 415 kts | 295° |
| 2026-05-04 11:12 | 33.11104 | 32.40103 | 35998 ft | 414 kts | 295° |
| 2026-05-04 11:13 | 33.14379 | 32.34444 | 36010 ft | 414 kts | 295° |
| 2026-05-04 11:13 | 33.17646 | 32.28783 | 36004 ft | 414 kts | 295° |
| 2026-05-04 11:14 | 33.20907 | 32.23125 | 36007 ft | 414 kts | 295° |
| 2026-05-04 11:16 | 33.33919 | 32.00473 | 35999 ft | 413 kts | 295° |
| 2026-05-04 11:16 | 33.37164 | 31.94800 | 35994 ft | 413 kts | 295° |
| 2026-05-04 11:17 | 33.40412 | 31.89126 | 35995 ft | 413 kts | 295° |
| 2026-05-04 11:19 | 33.53344 | 31.66414 | 35988 ft | 413 kts | 295° |
| 2026-05-04 11:19 | 33.56053 | 31.61640 | 35995 ft | 413 kts | 296° |
| 2026-05-04 11:20 | 33.59264 | 31.55983 | 35994 ft | 413 kts | 296° |
| 2026-05-04 11:20 | 33.62492 | 31.50288 | 35989 ft | 413 kts | 296° |
| 2026-05-04 11:22 | 33.75352 | 31.27439 | 35981 ft | 413 kts | 296° |
| 2026-05-04 11:23 | 33.78568 | 31.21709 | 35982 ft | 413 kts | 296° |
| 2026-05-04 11:25 | 33.89794 | 31.01652 | 35979 ft | 413 kts | 296° |
| 2026-05-04 11:25 | 33.92985 | 30.95917 | 35981 ft | 412 kts | 299° |
| 2026-05-04 11:26 | 33.96102 | 30.90314 | 35979 ft | 397 kts | 299° |
| 2026-05-04 11:27 | 34.06794 | 30.71029 | 35979 ft | 397 kts | 299° |
| 2026-05-04 11:28 | 34.09856 | 30.65490 | 35977 ft | 397 kts | 299° |
| 2026-05-04 11:28 | 34.12912 | 30.59937 | 35974 ft | 397 kts | 299° |
| 2026-05-04 11:29 | 34.15977 | 30.54371 | 35973 ft | 398 kts | 299° |
| 2026-05-04 11:29 | 34.19042 | 30.48800 | 35978 ft | 399 kts | 299° |
| 2026-05-04 11:33 | 34.40526 | 30.09481 | 35974 ft | 402 kts | 300° |
| 2026-05-04 11:33 | 34.43601 | 30.03821 | 35969 ft | 402 kts | 300° |
| 2026-05-04 11:34 | 34.46976 | 29.98394 | 35970 ft | 408 kts | 310° |
| 2026-05-04 11:34 | 34.50938 | 29.93527 | 35971 ft | 408 kts | 310° |
| 2026-05-04 11:35 | 34.54950 | 29.88585 | 35969 ft | 409 kts | 310° |
| 2026-05-04 11:35 | 34.58909 | 29.83694 | 35970 ft | 409 kts | 310° |
| 2026-05-04 11:36 | 34.62894 | 29.78762 | 35967 ft | 409 kts | 310° |
| 2026-05-04 11:36 | 34.66897 | 29.73843 | 35969 ft | 411 kts | 313° |
| 2026-05-04 11:37 | 34.71574 | 29.69745 | 35964 ft | 416 kts | 321° |
| 2026-05-04 11:37 | 34.76353 | 29.65767 | 35965 ft | 416 kts | 321° |
| 2026-05-04 11:38 | 34.81136 | 29.61788 | 35962 ft | 417 kts | 321° |
| 2026-05-04 11:38 | 34.85916 | 29.57790 | 35962 ft | 417 kts | 321° |
| 2026-05-04 11:39 | 34.90698 | 29.53767 | 35958 ft | 418 kts | 321° |
| 2026-05-04 11:41 | 35.07491 | 29.39661 | 35954 ft | 419 kts | 321° |
| 2026-05-04 11:41 | 35.12291 | 29.35613 | 35956 ft | 419 kts | 321° |
| 2026-05-04 11:42 | 35.17091 | 29.31562 | 35955 ft | 420 kts | 321° |
| 2026-05-04 11:42 | 35.21894 | 29.27493 | 35950 ft | 420 kts | 321° |
| 2026-05-04 11:43 | 35.26700 | 29.23416 | 35951 ft | 421 kts | 322° |
| 2026-05-04 11:43 | 35.31512 | 29.19322 | 35951 ft | 421 kts | 322° |
| 2026-05-04 11:44 | 35.36333 | 29.15220 | 35950 ft | 422 kts | 322° |
| 2026-05-04 11:44 | 35.41147 | 29.11130 | 35951 ft | 423 kts | 322° |
| 2026-05-04 11:45 | 35.45945 | 29.07045 | 35950 ft | 423 kts | 322° |
| 2026-05-04 11:45 | 35.50776 | 29.02918 | 35951 ft | 423 kts | 322° |
| 2026-05-04 11:46 | 35.55613 | 28.98784 | 35949 ft | 424 kts | 322° |
| 2026-05-04 11:46 | 35.60451 | 28.94647 | 35954 ft | 424 kts | 322° |
| 2026-05-04 11:47 | 35.65293 | 28.90501 | 35953 ft | 424 kts | 322° |
| 2026-05-04 11:47 | 35.70131 | 28.86340 | 35958 ft | 424 kts | 322° |
| 2026-05-04 11:48 | 35.74971 | 28.82174 | 35959 ft | 425 kts | 322° |
| 2026-05-04 11:48 | 35.79816 | 28.78007 | 35958 ft | 425 kts | 322° |
| 2026-05-04 11:49 | 35.84660 | 28.73831 | 35956 ft | 425 kts | 322° |
| 2026-05-04 11:49 | 35.89511 | 28.69645 | 35965 ft | 425 kts | 322° |
| 2026-05-04 11:50 | 35.94360 | 28.65449 | 35960 ft | 426 kts | 322° |
| 2026-05-04 11:50 | 35.99209 | 28.61250 | 35962 ft | 426 kts | 322° |
| 2026-05-04 11:51 | 36.04053 | 28.57037 | 35961 ft | 426 kts | 323° |
| 2026-05-04 11:51 | 36.08863 | 28.52847 | 35963 ft | 426 kts | 323° |
| 2026-05-04 11:52 | 36.13710 | 28.48625 | 35962 ft | 426 kts | 323° |
| 2026-05-04 11:52 | 36.18560 | 28.44402 | 35962 ft | 427 kts | 323° |
| 2026-05-04 11:53 | 36.23413 | 28.40163 | 35973 ft | 427 kts | 323° |
| 2026-05-04 11:53 | 36.25277 | 28.38528 | 35982 ft | 426 kts | 323° |
| 2026-05-04 11:55 | 36.44724 | 28.21484 | 36001 ft | 429 kts | 323° |
| 2026-05-04 11:56 | 36.49604 | 28.17184 | 35998 ft | 430 kts | 323° |
| 2026-05-04 11:56 | 36.54483 | 28.12886 | 36000 ft | 430 kts | 323° |
| 2026-05-04 11:57 | 36.59360 | 28.08574 | 35996 ft | 430 kts | 323° |
| 2026-05-04 11:57 | 36.64231 | 28.04259 | 35995 ft | 430 kts | 323° |
| 2026-05-04 11:58 | 36.69103 | 27.99943 | 35987 ft | 430 kts | 323° |
| 2026-05-04 11:58 | 36.73968 | 27.95630 | 35984 ft | 429 kts | 323° |
| 2026-05-04 11:59 | 36.78836 | 27.91293 | 35981 ft | 430 kts | 323° |
| 2026-05-04 11:59 | 36.83708 | 27.86949 | 35984 ft | 430 kts | 323° |
| 2026-05-04 12:00 | 36.88585 | 27.82602 | 35989 ft | 431 kts | 323° |
| 2026-05-04 12:00 | 36.93465 | 27.78252 | 35996 ft | 431 kts | 323° |
| 2026-05-04 12:01 | 36.98348 | 27.73883 | 36003 ft | 431 kts | 323° |
| 2026-05-04 12:02 | 37.15401 | 27.58555 | 36028 ft | 431 kts | 324° |
| 2026-05-04 12:03 | 37.20246 | 27.54191 | 36027 ft | 431 kts | 324° |
| 2026-05-04 12:03 | 37.25116 | 27.49796 | 36026 ft | 432 kts | 324° |
| 2026-05-04 12:04 | 37.29993 | 27.45383 | 36027 ft | 432 kts | 324° |
| 2026-05-04 12:04 | 37.34875 | 27.40966 | 36028 ft | 433 kts | 324° |
| 2026-05-04 12:05 | 37.39762 | 27.36538 | 36029 ft | 433 kts | 324° |
| 2026-05-04 12:05 | 37.44651 | 27.32096 | 36031 ft | 434 kts | 324° |
| 2026-05-04 12:06 | 37.49544 | 27.27644 | 36033 ft | 434 kts | 324° |
| 2026-05-04 12:06 | 37.53614 | 27.23934 | 36045 ft | 434 kts | 324° |
| 2026-05-04 12:07 | 37.58510 | 27.19467 | 36056 ft | 435 kts | 324° |
| 2026-05-04 12:07 | 37.64201 | 27.14268 | 36069 ft | 434 kts | 324° |
| 2026-05-04 12:08 | 37.68296 | 27.10511 | 36068 ft | 435 kts | 324° |
| 2026-05-04 12:08 | 37.73191 | 27.06009 | 36078 ft | 435 kts | 324° |
| 2026-05-04 12:09 | 37.78092 | 27.01510 | 36078 ft | 436 kts | 324° |
| 2026-05-04 12:09 | 37.82997 | 26.97002 | 36076 ft | 436 kts | 324° |
| 2026-05-04 12:10 | 37.87907 | 26.92465 | 36072 ft | 437 kts | 324° |
| 2026-05-04 12:10 | 37.92782 | 26.87957 | 36064 ft | 437 kts | 324° |
| 2026-05-04 12:11 | 37.97698 | 26.83405 | 36062 ft | 438 kts | 324° |
| 2026-05-04 12:11 | 38.02616 | 26.78856 | 36062 ft | 438 kts | 324° |
| 2026-05-04 12:12 | 38.07529 | 26.74300 | 36057 ft | 437 kts | 324° |
| 2026-05-04 12:12 | 38.12436 | 26.69738 | 36060 ft | 437 kts | 324° |
| 2026-05-04 12:14 | 38.32027 | 26.51442 | 36079 ft | 437 kts | 324° |
| 2026-05-04 12:15 | 38.36922 | 26.46840 | 36089 ft | 437 kts | 324° |
| 2026-05-04 12:15 | 38.41815 | 26.42245 | 36088 ft | 437 kts | 324° |
| 2026-05-04 12:16 | 38.46706 | 26.37648 | 36088 ft | 437 kts | 324° |
| 2026-05-04 12:16 | 38.51603 | 26.33036 | 36093 ft | 437 kts | 325° |
| 2026-05-04 12:17 | 38.56491 | 26.28411 | 36088 ft | 438 kts | 324° |
| 2026-05-04 12:17 | 38.61386 | 26.23773 | 36094 ft | 438 kts | 324° |
| 2026-05-04 12:18 | 38.66292 | 26.19126 | 36083 ft | 439 kts | 324° |
| 2026-05-04 12:18 | 38.71203 | 26.14471 | 36079 ft | 439 kts | 324° |
| 2026-05-04 12:19 | 38.76082 | 26.09839 | 36085 ft | 440 kts | 324° |
| 2026-05-04 12:19 | 38.80990 | 26.05155 | 36087 ft | 440 kts | 324° |
| 2026-05-04 12:20 | 38.85898 | 26.00463 | 36089 ft | 440 kts | 324° |
| 2026-05-04 12:20 | 38.90809 | 25.95771 | 36091 ft | 440 kts | 324° |
| 2026-05-04 12:21 | 38.95718 | 25.91071 | 36096 ft | 440 kts | 324° |
| 2026-05-04 12:21 | 39.00627 | 25.86358 | 36094 ft | 441 kts | 324° |
| 2026-05-04 12:22 | 39.05538 | 25.81635 | 36098 ft | 441 kts | 324° |
| 2026-05-04 12:22 | 39.10455 | 25.76899 | 36099 ft | 442 kts | 324° |
| 2026-05-04 12:23 | 39.15376 | 25.72158 | 36104 ft | 442 kts | 324° |
| 2026-05-04 12:23 | 39.20303 | 25.67401 | 36100 ft | 443 kts | 324° |
| 2026-05-04 12:24 | 39.25237 | 25.62626 | 36102 ft | 443 kts | 324° |
| 2026-05-04 12:24 | 39.30170 | 25.57834 | 36102 ft | 444 kts | 324° |
| 2026-05-04 12:25 | 39.35105 | 25.53035 | 36105 ft | 444 kts | 324° |
| 2026-05-04 12:25 | 39.40047 | 25.48226 | 36104 ft | 445 kts | 324° |
| 2026-05-04 12:26 | 39.44992 | 25.43410 | 36102 ft | 445 kts | 324° |
| 2026-05-04 12:26 | 39.49905 | 25.38614 | 36105 ft | 445 kts | 324° |
| 2026-05-04 12:27 | 39.54847 | 25.33770 | 36105 ft | 446 kts | 324° |
| 2026-05-04 12:27 | 39.59793 | 25.28917 | 36107 ft | 446 kts | 324° |
| 2026-05-04 12:28 | 39.64741 | 25.24060 | 36109 ft | 446 kts | 324° |
| 2026-05-04 12:28 | 39.69691 | 25.19197 | 36108 ft | 446 kts | 324° |
| 2026-05-04 12:29 | 39.74643 | 25.14324 | 36112 ft | 446 kts | 324° |
| 2026-05-04 12:29 | 39.79582 | 25.09441 | 36111 ft | 446 kts | 324° |
| 2026-05-04 12:30 | 39.84519 | 25.04547 | 36111 ft | 447 kts | 324° |
| 2026-05-04 12:30 | 39.89466 | 24.99641 | 36111 ft | 447 kts | 324° |
| 2026-05-04 12:31 | 39.94417 | 24.94732 | 36109 ft | 448 kts | 324° |
| 2026-05-04 12:31 | 39.99370 | 24.89806 | 36112 ft | 448 kts | 324° |
| 2026-05-04 12:32 | 40.06801 | 24.82389 | 36108 ft | 448 kts | 324° |
| 2026-05-04 12:33 | 40.11753 | 24.77436 | 36109 ft | 449 kts | 324° |
| 2026-05-04 12:33 | 40.16708 | 24.72471 | 36106 ft | 449 kts | 324° |
| 2026-05-04 12:34 | 40.21666 | 24.67496 | 36105 ft | 449 kts | 324° |
| 2026-05-04 12:34 | 40.26621 | 24.62514 | 36105 ft | 449 kts | 324° |
| 2026-05-04 12:35 | 40.31547 | 24.57557 | 36106 ft | 449 kts | 324° |
| 2026-05-04 12:35 | 40.36503 | 24.52565 | 36104 ft | 449 kts | 324° |
| 2026-05-04 12:36 | 40.41445 | 24.47560 | 36103 ft | 449 kts | 324° |
| 2026-05-04 12:36 | 40.46385 | 24.42542 | 36099 ft | 449 kts | 324° |
| 2026-05-04 12:37 | 40.51324 | 24.37533 | 36098 ft | 449 kts | 324° |
| 2026-05-04 12:37 | 40.56265 | 24.32512 | 36097 ft | 449 kts | 324° |
| 2026-05-04 12:38 | 40.61201 | 24.27484 | 36093 ft | 449 kts | 323° |
| 2026-05-04 12:38 | 40.66134 | 24.22442 | 36093 ft | 449 kts | 323° |
| 2026-05-04 12:39 | 40.71062 | 24.17401 | 36096 ft | 449 kts | 324° |
| 2026-05-04 12:39 | 40.75990 | 24.12354 | 36091 ft | 448 kts | 324° |
| 2026-05-04 12:40 | 40.80906 | 24.07309 | 36090 ft | 448 kts | 324° |
| 2026-05-04 12:40 | 40.85822 | 24.02258 | 36087 ft | 448 kts | 324° |
| 2026-05-04 12:41 | 40.90734 | 23.97194 | 36085 ft | 448 kts | 324° |
| 2026-05-04 12:41 | 40.95635 | 23.92130 | 35952 ft | 445 kts | 324° |
| 2026-05-04 12:41 | 40.98073 | 23.89609 | 35278 ft | 446 kts | 324° |
| 2026-05-04 12:42 | 41.00527 | 23.87072 | 34522 ft | 449 kts | 323° |
| 2026-05-04 12:42 | 41.02997 | 23.84515 | 33680 ft | 453 kts | 323° |
| 2026-05-04 12:42 | 41.05492 | 23.81923 | 32721 ft | 458 kts | 323° |
| 2026-05-04 12:42 | 41.08011 | 23.79305 | 31722 ft | 464 kts | 323° |
| 2026-05-04 12:43 | 41.10567 | 23.76644 | 30708 ft | 470 kts | 323° |
| 2026-05-04 12:43 | 41.13157 | 23.73946 | 29590 ft | 477 kts | 323° |
| 2026-05-04 12:43 | 41.15755 | 23.71233 | 28836 ft | 474 kts | 323° |
| 2026-05-04 12:43 | 41.18330 | 23.68544 | 28159 ft | 468 kts | 323° |
| 2026-05-04 12:44 | 41.20877 | 23.65885 | 27497 ft | 463 kts | 323° |
| 2026-05-04 12:44 | 41.23359 | 23.63294 | 26869 ft | 458 kts | 323° |
| 2026-05-04 12:44 | 41.25852 | 23.60692 | 26246 ft | 453 kts | 323° |
| 2026-05-04 12:44 | 41.28314 | 23.58114 | 25650 ft | 448 kts | 323° |
| 2026-05-04 12:45 | 41.30782 | 23.55529 | 25075 ft | 443 kts | 323° |
| 2026-05-04 12:45 | 41.33155 | 23.53040 | 24518 ft | 438 kts | 323° |
| 2026-05-04 12:45 | 41.35533 | 23.50545 | 23965 ft | 433 kts | 323° |
| 2026-05-04 12:45 | 41.38018 | 23.48338 | 23367 ft | 427 kts | 333° |
| 2026-05-04 12:46 | 41.40698 | 23.46711 | 22751 ft | 420 kts | 342° |
| 2026-05-04 12:46 | 41.43489 | 23.45681 | 22186 ft | 414 kts | 351° |
| 2026-05-04 12:46 | 41.46336 | 23.45218 | 21287 ft | 414 kts | 359° |
| 2026-05-04 12:46 | 41.49226 | 23.45073 | 20458 ft | 416 kts | 359° |
| 2026-05-04 12:47 | 41.52086 | 23.44939 | 20126 ft | 404 kts | 359° |
| 2026-05-04 12:47 | 41.54859 | 23.44808 | 20079 ft | 395 kts | 359° |
| 2026-05-04 12:47 | 41.57605 | 23.44678 | 20085 ft | 395 kts | 359° |
| 2026-05-04 12:47 | 41.60349 | 23.44545 | 20086 ft | 394 kts | 359° |
| 2026-05-04 12:48 | 41.63089 | 23.44409 | 20087 ft | 394 kts | 359° |
| 2026-05-04 12:48 | 41.65830 | 23.44272 | 20088 ft | 394 kts | 359° |
| 2026-05-04 12:48 | 41.68572 | 23.44134 | 20087 ft | 394 kts | 359° |
| 2026-05-04 12:48 | 41.71314 | 23.43992 | 20087 ft | 394 kts | 359° |
| 2026-05-04 12:49 | 41.74053 | 23.43848 | 20093 ft | 394 kts | 359° |
| 2026-05-04 12:49 | 41.76796 | 23.43705 | 20085 ft | 394 kts | 359° |
| 2026-05-04 12:49 | 41.79534 | 23.43564 | 20090 ft | 394 kts | 359° |
| 2026-05-04 12:49 | 41.82276 | 23.43426 | 20096 ft | 394 kts | 359° |
| 2026-05-04 12:50 | 41.85018 | 23.43290 | 20099 ft | 394 kts | 359° |